createdAt,value
2019-02-07T00:02:15.407Z,24.23
2019-02-07T00:04:45.466Z,22.95
2019-02-07T00:07:16.646Z,23.65
2019-02-07T00:09:46.714Z,20.35
2019-02-07T00:12:16.799Z,21.75
2019-02-07T00:14:46.861Z,22.30
2019-02-07T00:17:16.963Z,20.15
2019-02-07T00:19:47.040Z,21.73
2019-02-07T00:22:17.125Z,22.13
2019-02-07T00:24:47.201Z,18.92
2019-02-07T00:27:17.297Z,21.15
2019-02-07T00:29:47.363Z,20.45
2019-02-07T00:32:18.410Z,20.05
2019-02-07T00:34:48.643Z,19.20
2019-02-07T00:37:18.738Z,21.75
2019-02-07T00:39:48.806Z,20.85
2019-02-07T00:42:18.884Z,21.62
2019-02-07T00:44:51.328Z,21.57
2019-02-07T00:47:20.727Z,21.37
2019-02-07T00:49:50.793Z,19.12
2019-02-07T00:52:20.865Z,20.27
2019-02-07T00:54:50.943Z,20.57
2019-02-07T00:57:21.022Z,21.40
2019-02-07T00:59:51.090Z,19.90
2019-02-07T01:02:21.160Z,19.45
2019-02-07T01:04:51.232Z,21.48
2019-02-07T01:07:21.305Z,21.77
2019-02-07T01:09:51.384Z,23.20
2019-02-07T01:12:21.466Z,20.05
2019-02-07T01:15:01.670Z,20.48
2019-02-07T01:17:23.775Z,20.68
2019-02-07T01:19:53.841Z,20.00
2019-02-07T01:22:23.923Z,19.62
2019-02-07T01:24:53.988Z,19.75
2019-02-07T01:27:24.068Z,18.45
2019-02-07T01:29:54.313Z,18.52
2019-02-07T01:32:24.396Z,20.48
2019-02-07T01:34:54.466Z,18.62
2019-02-07T01:37:24.544Z,18.42
2019-02-07T01:39:54.604Z,19.42
2019-02-07T01:42:24.686Z,17.07
2019-02-07T01:44:54.788Z,17.90
2019-02-07T01:47:24.867Z,17.60
2019-02-07T01:49:54.943Z,16.17
2019-02-07T01:52:25.020Z,17.30
2019-02-07T01:54:55.091Z,19.40
2019-02-07T01:57:25.546Z,16.35
2019-02-07T01:59:55.610Z,17.23
2019-02-07T02:02:25.705Z,18.07
2019-02-07T02:04:55.769Z,18.15
2019-02-07T02:07:25.851Z,14.47
2019-02-07T02:09:55.910Z,15.72
2019-02-07T02:12:26.166Z,16.10
2019-02-07T02:14:56.228Z,14.40
2019-02-07T02:17:26.308Z,14.63
2019-02-07T02:19:56.388Z,15.60
2019-02-07T02:22:26.474Z,14.63
2019-02-07T02:24:56.556Z,13.95
2019-02-07T02:27:26.622Z,16.30
2019-02-07T02:29:56.689Z,15.95
2019-02-07T02:32:26.774Z,17.65
2019-02-07T02:34:56.909Z,13.98
2019-02-07T02:37:27.002Z,14.90
2019-02-07T02:39:57.441Z,13.68
2019-02-07T02:42:28.013Z,12.85
2019-02-07T02:44:58.075Z,14.70
2019-02-07T02:47:28.308Z,14.00
2019-02-07T02:49:58.381Z,15.28
2019-02-07T02:52:30.076Z,13.48
2019-02-07T02:55:00.213Z,13.83
2019-02-07T02:57:30.290Z,12.78
2019-02-07T03:00:00.341Z,12.78
2019-02-07T03:02:32.073Z,14.30
2019-02-07T03:05:10.724Z,16.52
2019-02-07T03:07:57.408Z,12.55
2019-02-07T03:10:31.834Z,15.55
2019-02-07T03:13:19.695Z,12.68
2019-02-07T03:15:54.444Z,13.13
2019-02-07T03:18:44.529Z,14.23
2019-02-07T03:21:16.230Z,10.70
2019-02-07T03:24:06.169Z,15.28
2019-02-07T03:26:56.140Z,12.73
2019-02-07T03:29:27.848Z,11.95
2019-02-07T03:31:59.595Z,11.83
2019-02-07T03:34:47.686Z,12.15
2019-02-07T03:37:19.395Z,13.00
2019-02-07T03:40:06.615Z,11.85
2019-02-07T03:42:54.405Z,12.10
2019-02-07T03:45:26.287Z,11.90
2019-02-07T03:47:57.993Z,11.57
2019-02-07T03:50:42.037Z,11.15
2019-02-07T03:53:13.749Z,11.75
2019-02-07T03:56:02.086Z,11.45
2019-02-07T03:58:33.790Z,10.00
2019-02-07T04:01:08.218Z,11.28
2019-02-07T04:03:39.924Z,8.55
2019-02-07T04:06:21.419Z,10.08
2019-02-07T04:09:07.737Z,8.25
2019-02-07T04:11:55.630Z,9.80
2019-02-07T04:14:45.897Z,9.45
2019-02-07T04:17:20.302Z,9.45
2019-02-07T04:20:10.301Z,8.60
2019-02-07T04:22:46.026Z,9.28
2019-02-07T04:25:20.637Z,8.38
2019-02-07T04:28:01.364Z,8.93
2019-02-07T04:30:39.199Z,9.23
2019-02-07T04:33:27.425Z,8.23
2019-02-07T04:36:08.361Z,8.08
2019-02-07T04:38:42.902Z,8.93
2019-02-07T04:41:17.328Z,8.88
2019-02-07T04:44:05.068Z,8.00
2019-02-07T04:46:51.775Z,8.73
2019-02-07T04:49:24.441Z,8.40
2019-02-07T04:52:13.196Z,7.30
2019-02-07T04:55:00.933Z,10.15
2019-02-07T04:57:39.520Z,7.47
2019-02-07T05:00:18.518Z,7.60
2019-02-07T05:03:02.427Z,7.85
2019-02-07T05:05:34.128Z,7.25
2019-02-07T05:08:06.008Z,7.35
2019-02-07T05:10:37.711Z,6.50
2019-02-07T05:13:18.204Z,7.45
2019-02-07T05:16:06.024Z,7.28
2019-02-07T05:18:37.726Z,6.50
2019-02-07T05:21:25.837Z,6.53
2019-02-07T05:23:57.535Z,6.30
2019-02-07T05:26:32.343Z,7.35
2019-02-07T05:29:10.055Z,7.25
2019-02-07T05:31:45.760Z,7.97
2019-02-07T05:34:23.443Z,7.37
2019-02-07T05:36:55.143Z,7.60
2019-02-07T05:39:29.802Z,6.72
2019-02-07T05:42:01.501Z,6.78
2019-02-07T05:44:35.734Z,7.42
2019-02-07T05:47:13.846Z,7.42
2019-02-07T05:49:51.504Z,9.70
2019-02-07T05:52:39.539Z,7.60
2019-02-07T05:55:28.029Z,8.90
2019-02-07T05:58:28.362Z,8.90
2019-02-07T06:01:15.083Z,8.78
2019-02-07T06:04:02.877Z,9.33
2019-02-07T06:06:34.580Z,9.53
2019-02-07T06:09:12.519Z,8.68
2019-02-07T06:11:49.910Z,9.40
2019-02-07T06:14:27.574Z,9.58
2019-02-07T06:17:02.682Z,7.62
2019-02-07T06:20:03.508Z,8.48
2019-02-07T06:22:51.239Z,8.98
2019-02-07T06:25:22.947Z,8.93
2019-02-07T06:27:57.325Z,8.55
2019-02-07T06:30:40.817Z,9.30
2019-02-07T06:33:28.764Z,6.67
2019-02-07T06:36:00.459Z,8.23
2019-02-07T06:38:40.965Z,4.47
2019-02-07T06:41:15.585Z,5.55
2019-02-07T06:43:49.954Z,7.92
2019-02-07T06:46:30.400Z,7.12
2019-02-07T06:49:18.531Z,11.20
2019-02-07T06:51:56.171Z,9.95
2019-02-07T06:54:33.650Z,13.43
2019-02-07T06:57:21.498Z,16.30
2019-02-07T06:59:58.892Z,17.60
2019-02-07T07:02:30.599Z,23.35
2019-02-07T07:05:02.311Z,14.70
2019-02-07T07:07:49.116Z,27.65
2019-02-07T07:10:38.822Z,22.98
2019-02-07T07:13:10.917Z,23.18
2019-02-07T07:15:42.622Z,19.35
2019-02-07T07:18:14.321Z,20.43
2019-02-07T07:20:51.707Z,21.02
2019-02-07T07:23:23.423Z,19.45
2019-02-07T07:25:55.231Z,20.27
2019-02-07T07:28:26.941Z,16.17
2019-02-07T07:30:58.639Z,14.78
2019-02-07T07:33:33.084Z,27.27
2019-02-07T07:36:13.929Z,18.98
2019-02-07T07:38:45.684Z,20.77
2019-02-07T07:41:33.816Z,23.45
2019-02-07T07:44:05.923Z,20.00
2019-02-07T07:46:43.436Z,23.65
2019-02-07T07:51:38.005Z,24.87
2019-02-07T07:54:09.705Z,17.90
2019-02-07T07:56:41.805Z,20.43
2019-02-07T07:59:30.064Z,26.25
2019-02-07T08:02:01.773Z,19.15
2019-02-07T08:04:39.474Z,26.52
2019-02-07T08:07:23.481Z,28.23
2019-02-07T08:10:13.682Z,19.20
2019-02-07T08:12:49.685Z,17.75
2019-02-07T08:15:30.424Z,23.10
2019-02-07T08:18:18.258Z,28.02
2019-02-07T08:21:06.939Z,25.55
2019-02-07T08:23:38.646Z,28.32
2019-02-07T08:26:16.358Z,26.00
2019-02-07T08:28:50.708Z,25.45
2019-02-07T08:31:40.702Z,17.50
2019-02-07T08:34:12.408Z,24.70
2019-02-07T08:36:50.047Z,26.17
2019-02-07T08:39:21.761Z,24.63
2019-02-07T08:42:11.871Z,20.97
2019-02-07T08:47:39.693Z,24.15
2019-02-07T08:50:25.883Z,26.27
2019-02-07T08:53:13.405Z,22.98
2019-02-07T08:56:01.473Z,20.85
2019-02-07T08:58:33.192Z,22.55
2019-02-07T09:01:04.891Z,19.98
2019-02-07T09:03:45.580Z,22.52
2019-02-07T09:06:33.385Z,23.52
2019-02-07T09:09:05.651Z,24.95
2019-02-07T09:11:54.108Z,20.70
2019-02-07T09:14:37.827Z,26.07
2019-02-07T09:17:09.540Z,23.18
2019-02-07T09:19:44.159Z,20.15
2019-02-07T09:22:25.171Z,19.55
2019-02-07T09:25:02.835Z,14.95
2019-02-07T09:27:40.301Z,22.27
2019-02-07T09:30:19.743Z,26.93
2019-02-07T09:33:07.510Z,19.20
2019-02-07T09:35:48.231Z,17.98
2019-02-07T09:38:38.088Z,19.98
2019-02-07T09:41:26.328Z,22.07
2019-02-07T09:44:07.025Z,21.02
2019-02-07T09:46:54.853Z,20.85
2019-02-07T09:49:38.613Z,17.60
2019-02-07T09:52:20.581Z,22.93
2019-02-07T09:54:52.819Z,22.45
2019-02-07T09:57:24.525Z,17.90
2019-02-07T10:00:08.536Z,21.17
2019-02-07T10:02:43.099Z,21.40
2019-02-07T10:05:18.114Z,19.50
2019-02-07T10:08:02.054Z,22.82
2019-02-07T10:10:33.775Z,16.77
2019-02-07T10:13:23.919Z,20.57
2019-02-07T10:16:01.395Z,18.23
2019-02-07T10:18:39.049Z,16.48
2019-02-07T10:21:27.208Z,16.48
2019-02-07T10:24:08.109Z,18.00
2019-02-07T10:26:39.825Z,23.30
2019-02-07T10:29:27.998Z,20.25
2019-02-07T10:32:11.693Z,17.98
2019-02-07T10:34:43.398Z,17.87
2019-02-07T10:37:20.990Z,23.05
2019-02-07T10:39:55.776Z,25.88
2019-02-07T10:42:43.650Z,14.63
2019-02-07T10:45:22.674Z,17.45
2019-02-07T10:48:12.626Z,10.98
2019-02-07T10:50:44.349Z,20.82
2019-02-07T10:53:16.054Z,16.62
2019-02-07T10:56:04.385Z,21.65
2019-02-07T10:58:48.305Z,14.93
2019-02-07T11:01:32.260Z,15.13
2019-02-07T11:04:03.971Z,15.10
2019-02-07T11:06:52.150Z,15.15
2019-02-07T11:09:40.257Z,24.85
2019-02-07T11:12:21.190Z,20.23
2019-02-07T11:15:05.196Z,19.00
2019-02-07T11:17:37.187Z,17.50
2019-02-07T11:20:34.273Z,15.63
2019-02-07T11:23:22.174Z,21.60
2019-02-07T11:26:10.243Z,13.75
2019-02-07T11:28:44.628Z,16.37
2019-02-07T11:31:22.379Z,16.15
2019-02-07T11:34:07.300Z,20.80
2019-02-07T11:36:39.006Z,18.73
2019-02-07T11:39:11.782Z,20.57
2019-02-07T11:42:00.639Z,21.35
2019-02-07T11:44:35.020Z,17.67
2019-02-07T11:47:25.075Z,15.98
2019-02-07T11:50:11.608Z,13.32
2019-02-07T11:52:45.751Z,22.35
2019-02-07T11:55:17.467Z,16.67
2019-02-07T11:57:52.174Z,17.50
2019-02-07T12:00:32.742Z,14.07
2019-02-07T12:03:07.684Z,14.03
2019-02-07T12:05:42.380Z,18.30
2019-02-07T12:08:20.515Z,17.32
2019-02-07T12:10:52.231Z,19.50
2019-02-07T12:13:23.946Z,12.73
2019-02-07T12:15:55.651Z,10.65
2019-02-07T12:18:30.063Z,13.08
2019-02-07T12:21:04.434Z,14.23
2019-02-07T12:23:52.547Z,12.47
2019-02-07T12:26:24.257Z,15.72
2019-02-07T12:28:58.876Z,12.30
2019-02-07T12:31:46.914Z,17.17
2019-02-07T12:34:18.618Z,20.70
2019-02-07T12:36:56.369Z,15.78
2019-02-07T12:39:28.079Z,10.85
2019-02-07T12:42:02.531Z,12.63
2019-02-07T12:44:34.263Z,20.43
2019-02-07T12:47:22.289Z,12.65
2019-02-07T12:49:56.681Z,13.20
2019-02-07T12:52:44.508Z,16.57
2019-02-07T12:58:07.897Z,8.50
2019-02-07T13:00:58.154Z,14.55
2019-02-07T13:03:46.245Z,10.48
2019-02-07T13:06:20.908Z,11.75
2019-02-07T13:08:55.628Z,15.05
2019-02-07T13:11:27.372Z,14.65
2019-02-07T13:13:59.161Z,12.35
2019-02-07T13:16:33.593Z,14.85
2019-02-07T13:19:21.631Z,12.65
2019-02-07T13:21:53.418Z,11.78
2019-02-07T13:24:30.997Z,10.85
2019-02-07T13:27:15.582Z,14.58
2019-02-07T13:29:53.452Z,12.68
2019-02-07T13:32:33.909Z,13.83
2019-02-07T13:35:23.338Z,9.65
2019-02-07T13:38:04.363Z,8.95
2019-02-07T13:40:42.081Z,15.28
2019-02-07T13:43:13.786Z,7.75
2019-02-07T13:45:45.499Z,13.70
2019-02-07T13:48:26.205Z,8.53
2019-02-07T13:51:14.278Z,9.40
2019-02-07T13:54:02.429Z,11.25
2019-02-07T13:56:34.157Z,13.62
2019-02-07T13:59:22.514Z,9.80
2019-02-07T14:02:10.333Z,11.18
2019-02-07T14:04:44.700Z,12.93
2019-02-07T14:07:25.379Z,17.70
2019-02-07T14:10:02.739Z,11.43
2019-02-07T14:12:37.126Z,9.13
2019-02-07T14:15:15.029Z,14.78
2019-02-07T14:17:46.758Z,11.28
2019-02-07T14:20:30.736Z,13.80
2019-02-07T14:23:05.261Z,8.20
2019-02-07T14:25:49.193Z,13.00
2019-02-07T14:28:20.915Z,10.60
2019-02-07T14:31:06.316Z,9.50
2019-02-07T14:33:38.032Z,9.75
2019-02-07T14:36:25.009Z,10.32
2019-02-07T14:39:11.793Z,10.45
2019-02-07T14:41:58.537Z,13.05
2019-02-07T14:44:36.101Z,11.55
2019-02-07T14:47:06.160Z,10.23
2019-02-07T14:49:36.777Z,10.60
2019-02-07T14:52:06.837Z,10.98
2019-02-07T14:54:36.919Z,10.35
2019-02-07T14:57:06.981Z,12.93
2019-02-07T14:59:37.362Z,12.03
2019-02-07T15:02:07.425Z,10.38
2019-02-07T15:04:37.678Z,10.68
2019-02-07T15:07:07.795Z,8.00
2019-02-07T15:09:37.855Z,11.95
2019-02-07T15:12:07.921Z,14.55
2019-02-07T15:14:37.998Z,10.28
2019-02-07T15:17:08.220Z,7.90
2019-02-07T15:19:38.293Z,6.80
2019-02-07T15:22:08.390Z,12.47
2019-02-07T15:24:38.456Z,11.22
2019-02-07T15:27:08.514Z,12.80
2019-02-07T15:29:38.594Z,11.22
2019-02-07T15:32:08.662Z,10.55
2019-02-07T15:34:38.732Z,10.70
2019-02-07T15:37:08.865Z,10.72
2019-02-07T15:39:39.250Z,9.25
2019-02-07T15:42:09.311Z,13.00
2019-02-07T15:44:39.377Z,11.80
2019-02-07T15:47:09.729Z,10.60
2019-02-07T15:49:40.865Z,11.12
2019-02-07T15:52:10.928Z,13.55
2019-02-07T15:54:40.998Z,12.68
2019-02-07T15:57:11.129Z,12.63
2019-02-07T15:59:42.837Z,10.03
2019-02-07T16:02:14.167Z,14.68
2019-02-07T16:04:45.882Z,11.20
2019-02-07T16:07:16.122Z,7.75
2019-02-07T16:09:46.189Z,9.38
2019-02-07T16:12:16.251Z,14.58
2019-02-07T16:14:46.698Z,10.30
2019-02-07T16:17:16.752Z,18.45
2019-02-07T16:19:46.843Z,17.62
2019-02-07T16:22:16.904Z,13.43
2019-02-07T16:24:46.980Z,15.23
2019-02-07T16:27:17.043Z,16.55
2019-02-07T16:29:47.253Z,14.95
2019-02-07T16:32:17.317Z,12.18
2019-02-07T16:34:47.391Z,14.65
2019-02-07T16:37:17.450Z,17.67
2019-02-07T16:39:47.564Z,10.28
2019-02-07T16:42:17.993Z,12.23
2019-02-07T16:44:48.084Z,13.10
2019-02-07T16:47:18.138Z,12.70
2019-02-07T16:49:48.213Z,18.37
2019-02-07T16:52:18.272Z,13.28
2019-02-07T16:54:48.480Z,16.57
2019-02-07T16:57:18.534Z,11.35
2019-02-07T16:59:48.613Z,11.80
2019-02-07T17:02:18.669Z,11.33
2019-02-07T17:04:48.751Z,17.32
2019-02-07T17:07:18.809Z,12.07
2019-02-07T17:09:50.892Z,10.58
2019-02-07T17:12:20.958Z,11.35
2019-02-07T17:14:51.041Z,16.37
2019-02-07T17:17:27.144Z,16.50
2019-02-07T17:19:57.228Z,16.87
2019-02-07T17:22:27.860Z,17.10
2019-02-07T17:24:58.215Z,11.80
2019-02-07T17:27:28.274Z,11.55
2019-02-07T17:29:58.363Z,19.23
2019-02-07T17:32:28.435Z,17.80
2019-02-07T17:34:58.486Z,11.35
2019-02-07T17:37:28.631Z,17.70
2019-02-07T17:39:58.731Z,13.98
2019-02-07T17:42:28.804Z,15.48
2019-02-07T17:44:58.882Z,17.87
2019-02-07T17:47:31.922Z,18.48
2019-02-07T17:50:02.015Z,16.52
2019-02-07T17:52:32.077Z,19.23
2019-02-07T17:55:02.157Z,16.90
2019-02-07T17:57:33.182Z,13.95
2019-02-07T18:00:03.922Z,14.63
2019-02-07T18:02:33.994Z,16.15
2019-02-07T18:05:05.487Z,28.70
2019-02-07T18:07:35.542Z,14.78
2019-02-07T18:10:11.729Z,17.65
2019-02-07T18:12:41.781Z,19.32
2019-02-07T18:15:11.847Z,13.05
2019-02-07T18:17:42.298Z,13.85
2019-02-07T18:20:21.934Z,13.72
2019-02-07T18:22:52.065Z,16.95
2019-02-07T18:25:22.093Z,19.85
2019-02-07T18:27:52.175Z,12.05
2019-02-07T18:30:23.344Z,11.12
2019-02-07T18:32:57.694Z,17.10
2019-02-07T18:35:27.720Z,17.48
2019-02-07T18:37:57.810Z,13.68
2019-02-07T18:40:34.678Z,12.05
2019-02-07T18:43:05.193Z,18.87
2019-02-07T18:45:35.263Z,11.38
2019-02-07T18:48:05.328Z,20.00
2019-02-07T18:50:38.309Z,13.60
2019-02-07T18:53:09.618Z,12.13
2019-02-07T18:55:40.752Z,12.30
2019-02-07T18:58:10.829Z,16.30
2019-02-07T19:00:40.901Z,18.17
2019-02-07T19:03:10.983Z,13.35
2019-02-07T19:05:46.414Z,14.95
2019-02-07T19:08:16.480Z,20.17
2019-02-07T19:10:46.539Z,15.50
2019-02-07T19:13:17.044Z,13.43
2019-02-07T19:15:57.816Z,12.47
2019-02-07T19:18:27.888Z,16.27
2019-02-07T19:20:57.976Z,20.60
2019-02-07T19:23:28.391Z,17.02
2019-02-07T19:25:58.467Z,14.35
2019-02-07T19:28:29.670Z,16.52
2019-02-07T19:31:01.826Z,13.45
2019-02-07T19:33:31.889Z,21.68
2019-02-07T19:36:04.058Z,13.62
2019-02-07T19:38:34.204Z,18.70
2019-02-07T19:41:05.339Z,22.13
2019-02-07T19:43:36.472Z,16.87
2019-02-07T19:46:06.541Z,15.38
2019-02-07T19:48:36.608Z,16.27
2019-02-07T19:51:06.679Z,18.17
2019-02-07T19:53:36.794Z,15.30
2019-02-07T19:56:06.844Z,16.17
2019-02-07T19:58:37.894Z,19.52
2019-02-07T20:01:07.962Z,16.67
2019-02-07T20:03:38.040Z,17.50
2019-02-07T20:06:08.112Z,17.05
2019-02-07T20:08:38.169Z,20.02
2019-02-07T20:11:08.232Z,19.95
2019-02-07T20:13:38.645Z,22.85
2019-02-07T20:16:08.713Z,19.70
2019-02-07T20:18:38.845Z,17.15
2019-02-07T20:21:08.912Z,16.73
2019-02-07T20:23:39.695Z,23.47
2019-02-07T20:26:10.897Z,19.30
2019-02-07T20:28:41.054Z,11.50
2019-02-07T20:31:12.128Z,14.38
2019-02-07T20:33:43.432Z,19.77
2019-02-07T20:36:13.497Z,18.42
2019-02-07T20:38:43.565Z,16.45
2019-02-07T20:41:13.643Z,13.75
2019-02-07T20:43:43.716Z,16.73
2019-02-07T20:46:13.770Z,13.95
2019-02-07T20:48:43.853Z,20.92
2019-02-07T20:51:14.082Z,18.75
2019-02-07T20:53:44.151Z,17.07
2019-02-07T20:56:14.246Z,20.10
2019-02-07T20:58:44.581Z,13.40
2019-02-07T21:01:15.881Z,18.65
2019-02-07T21:03:45.953Z,15.83
2019-02-07T21:06:16.072Z,19.52
2019-02-07T21:08:46.136Z,18.45
2019-02-07T21:11:16.513Z,20.12
2019-02-07T21:13:46.592Z,18.15
2019-02-07T21:16:16.665Z,14.03
2019-02-07T21:18:46.715Z,12.53
2019-02-07T21:21:17.054Z,17.85
2019-02-07T21:23:47.117Z,13.58
2019-02-07T21:26:17.178Z,28.17
2019-02-07T21:28:47.255Z,15.45
2019-02-07T21:31:17.316Z,14.83
2019-02-07T21:33:47.384Z,11.33
2019-02-07T21:36:17.633Z,20.20
2019-02-07T21:38:50.662Z,25.43
2019-02-07T21:41:21.038Z,19.35
2019-02-07T21:43:52.771Z,16.87
2019-02-07T21:46:22.849Z,14.45
2019-02-07T21:48:52.912Z,14.38
2019-02-07T21:51:26.259Z,10.32
2019-02-07T21:53:56.464Z,19.07
2019-02-07T21:56:26.502Z,15.53
2019-02-07T21:58:56.590Z,16.02
2019-02-07T22:01:26.672Z,19.70
2019-02-07T22:03:56.755Z,15.40
2019-02-07T22:06:26.811Z,18.05
2019-02-07T22:08:56.886Z,12.03
2019-02-07T22:11:26.941Z,20.92
2019-02-07T22:13:58.831Z,15.40
2019-02-07T22:16:28.930Z,20.65
2019-02-07T22:19:00.930Z,14.87
2019-02-07T22:21:30.916Z,18.23
2019-02-07T22:24:00.992Z,17.02
2019-02-07T22:26:31.065Z,17.67
2019-02-07T22:29:01.125Z,22.80
2019-02-07T22:31:31.208Z,13.35
2019-02-07T22:34:02.896Z,16.48
2019-02-07T22:36:32.975Z,13.78
2019-02-07T22:39:03.104Z,16.07
2019-02-07T22:41:34.445Z,19.25
2019-02-07T22:44:04.532Z,17.85
2019-02-07T22:46:34.972Z,23.65
2019-02-07T22:49:05.040Z,27.20
2019-02-07T22:51:35.107Z,20.05
2019-02-07T22:54:05.253Z,15.13
2019-02-07T22:56:35.302Z,15.60
2019-02-07T22:59:05.387Z,22.82
2019-02-07T23:01:37.125Z,15.23
2019-02-07T23:04:07.205Z,12.75
2019-02-07T23:06:38.237Z,19.92
2019-02-07T23:09:08.852Z,15.20
2019-02-07T23:11:38.985Z,17.90
2019-02-07T23:14:10.613Z,18.07
2019-02-07T23:16:40.681Z,16.87
2019-02-07T23:19:10.754Z,32.30
2019-02-07T23:21:40.812Z,19.07
2019-02-07T23:24:10.916Z,13.25
2019-02-07T23:26:40.967Z,17.67
2019-02-07T23:29:11.339Z,13.22
2019-02-07T23:31:41.409Z,14.63
2019-02-07T23:34:11.470Z,17.23
2019-02-07T23:36:41.533Z,22.67
2019-02-07T23:39:11.608Z,15.68
2019-02-07T23:41:41.838Z,19.98
2019-02-07T23:44:12.065Z,16.80
2019-02-07T23:46:42.111Z,14.30
2019-02-07T23:49:12.193Z,11.00
2019-02-07T23:51:42.367Z,18.77
2019-02-07T23:54:12.424Z,16.40
2019-02-07T23:56:42.484Z,17.02
2019-02-07T23:59:12.641Z,15.53
